createdAt,value
2022-10-17T00:00:22.575Z,12.91
2022-10-17T00:02:50.459Z,12.92
2022-10-17T00:05:18.628Z,12.89
2022-10-17T00:07:47.874Z,12.85
2022-10-17T00:10:15.977Z,12.88
2022-10-17T00:12:43.898Z,12.79
2022-10-17T00:15:16.317Z,12.81
2022-10-17T00:17:44.350Z,12.88
2022-10-17T00:20:13.485Z,12.91
2022-10-17T00:22:41.614Z,12.92
2022-10-17T00:25:11.507Z,12.84
2022-10-17T00:27:39.469Z,12.99
2022-10-17T00:30:10.922Z,13.00
2022-10-17T00:32:40.007Z,13.03
2022-10-17T00:35:08.824Z,13.00
2022-10-17T00:37:37.122Z,13.07
2022-10-17T00:40:07.613Z,12.97
2022-10-17T00:42:36.992Z,13.02
2022-10-17T00:45:18.453Z,12.97
2022-10-17T00:47:51.786Z,13.09
2022-10-17T00:50:20.774Z,13.02
2022-10-17T00:52:50.414Z,13.10
2022-10-17T00:55:22.814Z,13.30
2022-10-17T00:57:52.940Z,13.28
2022-10-17T01:00:21.806Z,13.40
2022-10-17T01:02:49.966Z,13.37
2022-10-17T01:05:19.380Z,13.26
2022-10-17T01:07:49.176Z,13.46
2022-10-17T01:10:17.221Z,13.31
2022-10-17T01:13:08.314Z,13.24
2022-10-17T01:15:49.773Z,13.06
2022-10-17T01:18:33.634Z,13.05
2022-10-17T01:21:37.466Z,13.09
2022-10-17T01:24:54.359Z,12.92
2022-10-17T01:28:02.260Z,12.91
2022-10-17T01:31:10.960Z,12.96
2022-10-17T01:33:47.866Z,13.53
2022-10-17T01:36:24.362Z,13.69
2022-10-17T01:38:59.939Z,13.99
2022-10-17T01:41:35.498Z,14.49
2022-10-17T01:44:09.319Z,14.78
2022-10-17T01:46:40.372Z,15.11
2022-10-17T01:49:14.245Z,15.38
2022-10-17T01:51:47.024Z,15.38
2022-10-17T01:54:18.760Z,15.31
2022-10-17T01:56:50.753Z,15.32
2022-10-17T01:59:23.523Z,15.40
2022-10-17T02:01:55.486Z,15.55
2022-10-17T02:04:24.891Z,15.61
2022-10-17T02:06:52.824Z,15.57
2022-10-17T02:09:22.998Z,15.75
2022-10-17T02:12:08.476Z,15.63
2022-10-17T02:14:49.113Z,15.58
2022-10-17T02:17:29.616Z,15.58
2022-10-17T02:20:11.689Z,15.58
2022-10-17T02:22:48.684Z,15.62
2022-10-17T02:25:24.724Z,15.75
2022-10-17T02:28:02.171Z,15.99
2022-10-17T02:30:35.195Z,15.93
2022-10-17T02:33:10.427Z,16.06
2022-10-17T02:35:44.314Z,16.03
2022-10-17T02:38:14.924Z,16.10
2022-10-17T02:40:47.128Z,15.92
2022-10-17T02:43:15.791Z,15.90
2022-10-17T02:45:43.697Z,15.97
2022-10-17T02:48:19.376Z,16.09
2022-10-17T02:50:54.616Z,16.11
2022-10-17T02:53:31.043Z,16.14
2022-10-17T02:56:04.029Z,16.17
2022-10-17T02:58:34.909Z,16.35
2022-10-17T03:01:03.184Z,16.65
2022-10-17T03:03:33.771Z,16.66
2022-10-17T03:06:03.073Z,16.65
2022-10-17T03:08:31.131Z,16.55
2022-10-17T03:10:59.088Z,16.61
2022-10-17T03:13:28.982Z,16.63
2022-10-17T03:15:59.499Z,16.73
2022-10-17T03:18:27.889Z,16.76
2022-10-17T03:21:01.932Z,16.76
2022-10-17T03:23:29.960Z,16.71
2022-10-17T03:25:58.211Z,16.63
2022-10-17T03:28:26.373Z,16.68
2022-10-17T03:30:54.402Z,16.69
2022-10-17T03:33:22.856Z,16.62
2022-10-17T03:35:51.461Z,16.69
2022-10-17T03:38:20.987Z,16.90
2022-10-17T03:40:56.267Z,16.75
2022-10-17T03:43:24.438Z,16.76
2022-10-17T03:45:52.508Z,16.76
2022-10-17T03:48:20.696Z,16.73
2022-10-17T03:50:48.661Z,16.69
2022-10-17T03:53:16.922Z,16.76
2022-10-17T03:55:46.441Z,16.71
2022-10-17T03:58:14.390Z,16.66
2022-10-17T04:00:42.381Z,16.68
2022-10-17T04:03:14.935Z,16.69
2022-10-17T04:05:45.641Z,16.58
2022-10-17T04:08:13.585Z,16.56
2022-10-17T04:11:04.769Z,16.65
2022-10-17T04:13:33.543Z,16.69
2022-10-17T04:16:03.885Z,16.72
2022-10-17T04:18:32.714Z,16.65
2022-10-17T04:21:03.051Z,16.68
2022-10-17T04:23:33.561Z,16.61
2022-10-17T04:26:12.368Z,16.63
2022-10-17T04:28:40.393Z,16.76
2022-10-17T04:31:11.635Z,16.73
2022-10-17T04:33:58.914Z,16.72
2022-10-17T04:36:27.038Z,16.80
2022-10-17T04:38:55.157Z,16.97
2022-10-17T04:41:24.632Z,16.96
2022-10-17T04:43:52.957Z,17.03
2022-10-17T04:46:22.269Z,17.03
2022-10-17T04:48:50.356Z,17.08
2022-10-17T04:51:23.054Z,17.11
2022-10-17T04:54:14.930Z,17.07
2022-10-17T04:56:47.186Z,17.06
2022-10-17T04:59:15.201Z,17.07
2022-10-17T05:01:45.358Z,17.04
2022-10-17T05:04:14.367Z,17.03
2022-10-17T05:06:42.283Z,17.07
2022-10-17T05:09:39.247Z,17.08
2022-10-17T05:12:10.466Z,17.11
2022-10-17T05:14:41.712Z,17.11
2022-10-17T05:17:09.865Z,17.08
2022-10-17T05:19:38.551Z,17.06
2022-10-17T05:22:07.862Z,16.99
2022-10-17T05:24:35.734Z,16.87
2022-10-17T05:27:04.806Z,16.89
2022-10-17T05:29:35.541Z,17.00
2022-10-17T05:32:16.210Z,16.99
2022-10-17T05:34:44.491Z,16.97
2022-10-17T05:37:12.788Z,17.08
2022-10-17T05:39:45.109Z,17.02
2022-10-17T05:42:15.981Z,17.06
2022-10-17T05:44:45.353Z,17.00
2022-10-17T05:47:15.172Z,17.00
2022-10-17T05:49:48.578Z,17.00
2022-10-17T05:52:23.455Z,16.99
2022-10-17T05:55:02.429Z,17.00
2022-10-17T05:57:30.480Z,16.97
2022-10-17T06:00:00.906Z,17.03
2022-10-17T06:02:30.334Z,17.04
2022-10-17T06:04:58.427Z,17.07
2022-10-17T06:07:27.787Z,16.96
2022-10-17T06:09:55.669Z,17.04
2022-10-17T06:12:23.708Z,17.04
2022-10-17T06:14:52.052Z,17.15
2022-10-17T06:17:21.445Z,17.21
2022-10-17T06:19:49.706Z,17.20
2022-10-17T06:22:17.751Z,17.27
2022-10-17T06:24:46.282Z,17.41
2022-10-17T06:27:15.537Z,17.45
2022-10-17T06:29:43.526Z,17.51
2022-10-17T06:32:14.928Z,17.55
2022-10-17T06:34:49.014Z,17.62
2022-10-17T06:37:17.833Z,17.66
2022-10-17T06:39:47.141Z,17.76
2022-10-17T06:42:19.140Z,17.86
2022-10-17T06:45:11.029Z,17.84
2022-10-17T06:47:43.495Z,17.89
2022-10-17T06:50:29.591Z,17.89
2022-10-17T06:53:11.658Z,17.87
2022-10-17T06:55:53.264Z,18.03
2022-10-17T06:58:40.988Z,18.10
2022-10-17T07:01:26.682Z,18.10
2022-10-17T07:03:58.387Z,18.12
2022-10-17T07:06:28.013Z,18.11
2022-10-17T07:08:57.842Z,18.04
2022-10-17T07:11:25.858Z,18.03
2022-10-17T07:13:54.028Z,18.00
2022-10-17T07:16:23.101Z,17.97
2022-10-17T07:19:02.556Z,17.91
2022-10-17T07:21:39.140Z,17.91
2022-10-17T07:24:09.214Z,17.90
2022-10-17T07:26:37.527Z,17.87
2022-10-17T07:29:06.493Z,17.84
2022-10-17T07:31:38.863Z,17.91
2022-10-17T07:34:06.932Z,17.96
2022-10-17T07:36:36.181Z,18.00
2022-10-17T07:39:06.326Z,18.04
2022-10-17T07:41:36.623Z,18.14
2022-10-17T07:44:05.641Z,18.12
2022-10-17T07:46:38.428Z,18.18
2022-10-17T07:49:06.973Z,18.22
2022-10-17T07:51:36.539Z,18.38
2022-10-17T07:54:06.343Z,18.28
2022-10-17T07:56:34.234Z,18.38
2022-10-17T07:59:05.154Z,18.42
2022-10-17T08:01:36.413Z,18.53
2022-10-17T08:04:04.314Z,18.53
2022-10-17T08:06:32.246Z,18.59
2022-10-17T08:09:02.276Z,18.60
2022-10-17T08:11:30.998Z,18.62
2022-10-17T08:13:58.894Z,18.59
2022-10-17T08:16:27.025Z,18.57
2022-10-17T08:18:54.999Z,18.56
2022-10-17T08:21:23.108Z,18.52
2022-10-17T08:23:51.041Z,18.56
2022-10-17T08:26:21.112Z,18.65
2022-10-17T08:28:49.633Z,18.72
2022-10-17T08:31:20.716Z,18.59
2022-10-17T08:33:49.578Z,18.57
2022-10-17T08:36:19.610Z,18.56
2022-10-17T08:38:51.780Z,18.65
2022-10-17T08:41:42.610Z,18.66
2022-10-17T08:44:15.999Z,18.72
2022-10-17T08:46:48.246Z,18.86
2022-10-17T08:49:24.395Z,18.97
2022-10-17T08:51:56.945Z,19.08
2022-10-17T08:54:34.393Z,19.26
2022-10-17T08:57:03.765Z,19.48
2022-10-17T08:59:33.454Z,19.59
2022-10-17T09:02:02.846Z,19.66
2022-10-17T09:04:49.808Z,19.71
2022-10-17T09:07:23.445Z,19.66
2022-10-17T09:10:00.394Z,19.70
2022-10-17T09:12:34.650Z,19.77
2022-10-17T09:15:23.595Z,19.66
2022-10-17T09:17:53.896Z,19.76
2022-10-17T09:20:25.242Z,19.84
2022-10-17T09:25:27.863Z,20.17
2022-10-17T09:28:04.506Z,20.39
2022-10-17T09:30:46.186Z,20.55
2022-10-17T09:33:28.394Z,20.46
2022-10-17T09:36:07.781Z,20.52
2022-10-17T09:38:42.164Z,20.48
2022-10-17T09:41:42.717Z,20.60
2022-10-17T09:44:26.029Z,20.77
2022-10-17T09:47:19.946Z,20.84
2022-10-17T09:49:49.174Z,20.74
2022-10-17T09:52:19.402Z,20.79
2022-10-17T09:54:49.525Z,20.84
2022-10-17T09:57:19.586Z,20.87
2022-10-17T09:59:58.091Z,20.83
2022-10-17T10:02:28.042Z,20.84
2022-10-17T10:05:04.531Z,20.88
2022-10-17T10:07:34.701Z,21.04
2022-10-17T10:10:04.137Z,21.14
2022-10-17T10:12:34.414Z,21.05
2022-10-17T10:15:34.541Z,21.00
2022-10-17T10:18:02.980Z,21.00
2022-10-17T10:20:34.988Z,21.04
2022-10-17T10:23:08.880Z,21.28
2022-10-17T10:25:37.505Z,21.32
2022-10-17T10:28:12.002Z,21.34
2022-10-17T10:30:41.408Z,21.39
2022-10-17T10:33:13.029Z,21.46
2022-10-17T10:35:42.383Z,21.61
2022-10-17T10:38:15.007Z,21.57
2022-10-17T10:40:48.343Z,21.56
2022-10-17T10:43:24.317Z,21.78
2022-10-17T10:45:54.400Z,21.84
2022-10-17T10:48:24.705Z,22.22
2022-10-17T10:50:57.249Z,22.33
2022-10-17T10:53:35.451Z,22.73
2022-10-17T10:56:09.300Z,22.12
2022-10-17T10:58:51.848Z,22.12
2022-10-17T11:01:28.621Z,22.49
2022-10-17T11:04:24.660Z,22.75
2022-10-17T11:06:56.212Z,22.74
2022-10-17T11:09:46.044Z,22.80
2022-10-17T11:12:19.528Z,22.78
2022-10-17T11:14:53.630Z,22.67
2022-10-17T11:17:32.019Z,22.67
2022-10-17T11:20:12.564Z,22.38
2022-10-17T11:22:44.214Z,22.42
2022-10-17T11:25:23.465Z,22.32
2022-10-17T11:27:52.434Z,22.28
2022-10-17T11:30:20.586Z,22.18
2022-10-17T11:32:55.011Z,22.19
2022-10-17T11:35:31.858Z,22.15
2022-10-17T11:38:14.310Z,22.16
2022-10-17T11:40:46.021Z,22.11
2022-10-17T11:43:18.843Z,22.06
2022-10-17T11:45:50.496Z,22.29
2022-10-17T11:48:24.312Z,22.39
2022-10-17T11:53:55.426Z,22.31
2022-10-17T11:56:30.674Z,22.35
2022-10-17T11:59:13.445Z,22.52
2022-10-17T12:01:45.807Z,22.56
2022-10-17T12:04:30.324Z,22.60
2022-10-17T12:07:10.921Z,22.42
2022-10-17T12:09:46.429Z,22.18
2022-10-17T12:12:26.041Z,22.06
2022-10-17T12:14:55.819Z,21.90
2022-10-17T12:17:30.132Z,21.74
2022-10-17T12:20:27.309Z,21.64
2022-10-17T12:22:56.864Z,21.87
2022-10-17T12:25:29.875Z,22.01
2022-10-17T12:28:13.563Z,22.04
2022-10-17T12:30:53.701Z,22.09
2022-10-17T12:33:26.754Z,22.21
2022-10-17T12:36:31.226Z,22.08
2022-10-17T12:39:37.883Z,22.00
2022-10-17T12:42:32.519Z,21.87
2022-10-17T12:45:00.771Z,21.70
2022-10-17T12:47:37.624Z,21.61
2022-10-17T12:50:28.967Z,21.63
2022-10-17T12:53:06.435Z,21.74
2022-10-17T12:55:34.437Z,21.74
2022-10-17T12:58:08.189Z,21.70
2022-10-17T13:00:38.466Z,21.52
2022-10-17T13:03:13.302Z,21.54
2022-10-17T13:05:43.436Z,21.28
2022-10-17T13:08:21.879Z,21.24
2022-10-17T13:10:52.790Z,21.42
2022-10-17T13:13:28.543Z,21.35
2022-10-17T13:15:58.146Z,21.36
2022-10-17T13:18:28.451Z,21.32
2022-10-17T13:21:02.483Z,21.35
2022-10-17T13:23:33.266Z,21.31
2022-10-17T13:26:14.985Z,21.39
2022-10-17T13:28:44.964Z,21.42
2022-10-17T13:31:29.647Z,21.36
2022-10-17T13:33:59.523Z,21.59
2022-10-17T13:36:30.099Z,21.66
2022-10-17T13:38:59.962Z,21.74
2022-10-17T13:41:37.472Z,21.78
2022-10-17T13:44:15.168Z,21.59
2022-10-17T13:46:44.798Z,21.47
2022-10-17T13:49:19.200Z,21.60
2022-10-17T13:51:49.369Z,21.67
2022-10-17T13:54:33.722Z,21.64
2022-10-17T13:57:05.765Z,21.74
2022-10-17T13:59:39.674Z,21.67
2022-10-17T14:02:14.559Z,21.49
2022-10-17T14:05:15.156Z,21.45
2022-10-17T14:08:05.607Z,21.14
2022-10-17T14:10:28.399Z,21.29
2022-10-17T14:12:56.966Z,21.32
2022-10-17T14:15:29.350Z,21.31
2022-10-17T14:18:02.318Z,21.35
2022-10-17T14:21:31.743Z,21.19
2022-10-17T14:23:33.642Z,21.05
2022-10-17T14:26:11.776Z,21.07
2022-10-17T14:28:40.777Z,21.19
2022-10-17T14:31:26.781Z,20.95
2022-10-17T14:33:55.739Z,20.98
2022-10-17T14:36:37.037Z,20.95
2022-10-17T14:39:10.556Z,20.81
2022-10-17T14:41:45.651Z,20.72
2022-10-17T14:44:30.089Z,20.79
2022-10-17T14:47:18.631Z,20.73
2022-10-17T14:49:52.107Z,20.70
2022-10-17T14:52:31.939Z,20.64
2022-10-17T14:55:01.645Z,20.67
2022-10-17T14:57:43.025Z,20.63
2022-10-17T15:00:15.780Z,20.67
2022-10-17T15:02:46.154Z,20.76
2022-10-17T15:05:14.656Z,20.70
2022-10-17T15:07:43.378Z,20.87
2022-10-17T15:10:26.674Z,20.74
2022-10-17T15:13:04.512Z,20.76
2022-10-17T15:15:44.181Z,20.60
2022-10-17T15:18:14.472Z,20.60
2022-10-17T15:20:42.519Z,20.55
2022-10-17T15:23:10.416Z,20.53
2022-10-17T15:25:40.145Z,20.66
2022-10-17T15:28:08.061Z,20.66
2022-10-17T15:30:37.282Z,20.62
2022-10-17T15:33:05.455Z,20.62
2022-10-17T15:35:34.737Z,20.63
2022-10-17T15:38:02.890Z,20.53
2022-10-17T15:40:31.216Z,20.46
2022-10-17T15:42:59.197Z,20.49
2022-10-17T15:45:27.098Z,20.48
2022-10-17T15:47:57.189Z,20.38
2022-10-17T15:50:25.278Z,20.32
2022-10-17T15:52:54.633Z,20.31
2022-10-17T15:55:22.681Z,20.31
2022-10-17T15:57:50.878Z,20.33
2022-10-17T16:00:20.747Z,20.33
2022-10-17T16:02:49.443Z,20.35
2022-10-17T16:05:23.238Z,20.25
2022-10-17T16:07:51.601Z,20.22
2022-10-17T16:10:21.408Z,20.21
2022-10-17T16:12:50.859Z,20.21
2022-10-17T16:15:24.843Z,20.11
2022-10-17T16:17:53.846Z,20.01
2022-10-17T16:20:22.640Z,19.98
2022-10-17T16:22:50.996Z,19.86
2022-10-17T16:25:23.321Z,19.87
2022-10-17T16:27:53.206Z,19.76
2022-10-17T16:32:50.882Z,19.76
2022-10-17T16:35:21.225Z,19.66
2022-10-17T16:37:49.408Z,19.59
2022-10-17T16:40:17.995Z,19.49
2022-10-17T16:42:47.662Z,19.22
2022-10-17T16:45:18.485Z,18.84
2022-10-17T16:47:47.173Z,18.62
2022-10-17T16:50:15.350Z,18.41
2022-10-17T16:52:43.551Z,18.25
2022-10-17T16:55:12.004Z,18.20
2022-10-17T16:57:40.059Z,18.12
2022-10-17T17:00:12.805Z,18.04
2022-10-17T17:02:40.703Z,18.00
2022-10-17T17:05:09.447Z,18.04
2022-10-17T17:07:37.495Z,17.96
2022-10-17T17:10:06.520Z,17.91
2022-10-17T17:12:34.989Z,17.87
2022-10-17T17:15:03.138Z,17.83
2022-10-17T17:17:49.725Z,17.79
2022-10-17T17:20:21.011Z,17.79
2022-10-17T17:22:50.828Z,17.77
2022-10-17T17:25:18.943Z,17.73
2022-10-17T17:27:46.906Z,17.69
2022-10-17T17:30:17.223Z,17.65
2022-10-17T17:32:46.727Z,17.62
2022-10-17T17:35:14.891Z,17.61
2022-10-17T17:37:42.890Z,17.51
2022-10-17T17:40:12.168Z,17.52
2022-10-17T17:42:40.155Z,17.46
2022-10-17T17:45:09.263Z,17.43
2022-10-17T17:47:37.183Z,17.45
2022-10-17T17:50:08.014Z,17.43
2022-10-17T17:52:36.011Z,17.45
2022-10-17T17:55:03.948Z,17.41
2022-10-17T17:57:32.081Z,17.42
2022-10-17T18:00:00.145Z,17.39
2022-10-17T18:02:28.435Z,17.42
2022-10-17T18:04:56.607Z,17.36
2022-10-17T18:07:26.079Z,17.39
2022-10-17T18:09:54.747Z,17.38
2022-10-17T18:12:22.666Z,17.30
2022-10-17T18:14:50.715Z,17.30
2022-10-17T18:17:18.688Z,17.28
2022-10-17T18:19:46.698Z,17.25
2022-10-17T18:22:14.668Z,17.21
2022-10-17T18:24:44.030Z,17.23
2022-10-17T18:27:13.549Z,17.24
2022-10-17T18:29:41.539Z,17.17
2022-10-17T18:32:09.841Z,17.17
2022-10-17T18:34:38.007Z,17.25
2022-10-17T18:37:06.149Z,17.18
2022-10-17T18:39:34.318Z,17.18
2022-10-17T18:42:04.376Z,17.10
2022-10-17T18:44:36.001Z,17.08
2022-10-17T18:47:06.068Z,17.14
2022-10-17T18:49:35.827Z,17.10
2022-10-17T18:52:08.956Z,17.10
2022-10-17T18:54:37.173Z,17.04
2022-10-17T18:57:06.758Z,17.06
2022-10-17T18:59:35.156Z,17.08
2022-10-17T19:02:03.192Z,17.07
2022-10-17T19:04:32.494Z,17.07
2022-10-17T19:07:00.483Z,17.13
2022-10-17T19:09:28.553Z,17.14
2022-10-17T19:11:56.500Z,17.17
2022-10-17T19:14:26.359Z,17.20
2022-10-17T19:16:54.043Z,17.15
2022-10-17T19:19:23.224Z,17.20
2022-10-17T19:21:51.771Z,17.18
2022-10-17T19:24:23.401Z,17.21
2022-10-17T19:26:53.470Z,17.20
2022-10-17T19:29:22.954Z,17.20
2022-10-17T19:31:52.708Z,17.24
2022-10-17T19:34:21.309Z,17.21
2022-10-17T19:36:49.281Z,17.20
2022-10-17T19:39:20.789Z,17.20
2022-10-17T19:41:49.558Z,17.21
2022-10-17T19:44:17.886Z,17.23
2022-10-17T19:46:46.944Z,17.25
2022-10-17T19:49:16.692Z,17.27
2022-10-17T19:51:44.642Z,17.24
2022-10-17T19:54:13.185Z,17.21
2022-10-17T19:56:43.416Z,17.27
2022-10-17T19:59:13.370Z,17.17
2022-10-17T20:01:41.531Z,17.14
2022-10-17T20:04:10.810Z,17.17
2022-10-17T20:06:41.108Z,17.15
2022-10-17T20:09:12.389Z,17.14
2022-10-17T20:11:43.748Z,17.10
2022-10-17T20:14:11.687Z,17.07
2022-10-17T20:16:39.654Z,17.14
2022-10-17T20:19:09.531Z,17.14
2022-10-17T20:21:39.606Z,17.08
2022-10-17T20:24:12.502Z,17.06
2022-10-17T20:26:40.869Z,17.07
2022-10-17T20:29:13.812Z,17.08
2022-10-17T20:31:43.500Z,17.04
2022-10-17T20:34:14.626Z,17.00
2022-10-17T20:36:43.080Z,17.03
2022-10-17T20:39:14.844Z,17.04
2022-10-17T20:41:43.430Z,16.99
2022-10-17T20:44:12.381Z,16.94
2022-10-17T20:46:45.253Z,16.91
2022-10-17T20:49:25.768Z,16.93
2022-10-17T20:51:53.745Z,16.91
2022-10-17T20:54:23.246Z,17.00
2022-10-17T20:56:51.383Z,16.94
2022-10-17T20:59:19.549Z,16.94
2022-10-17T21:01:48.421Z,16.97
2022-10-17T21:04:44.087Z,16.96
2022-10-17T21:07:04.489Z,16.94
2022-10-17T21:09:33.803Z,16.96
2022-10-17T21:12:03.516Z,16.91
2022-10-17T21:14:31.936Z,16.93
2022-10-17T21:17:04.749Z,16.87
2022-10-17T21:19:34.031Z,16.90
2022-10-17T21:22:02.027Z,16.86
2022-10-17T21:24:30.253Z,16.91
2022-10-17T21:27:00.414Z,16.91
2022-10-17T21:29:28.548Z,16.84
2022-10-17T21:31:56.470Z,16.86
2022-10-17T21:34:25.701Z,16.79
2022-10-17T21:36:54.039Z,16.83
2022-10-17T21:39:24.081Z,16.79
2022-10-17T21:41:52.972Z,16.80
2022-10-17T21:44:25.066Z,16.75
2022-10-17T21:46:53.993Z,16.71
2022-10-17T21:49:24.249Z,16.68
2022-10-17T21:51:52.920Z,16.66
2022-10-17T21:54:22.975Z,16.68
2022-10-17T21:56:51.538Z,16.71
2022-10-17T21:59:19.634Z,16.66
2022-10-17T22:01:49.068Z,16.59
2022-10-17T22:04:18.308Z,16.56
2022-10-17T22:06:48.280Z,16.62
2022-10-17T22:09:18.639Z,16.61
2022-10-17T22:11:50.393Z,16.59
2022-10-17T22:14:20.313Z,16.56
2022-10-17T22:16:50.584Z,16.69
2022-10-17T22:19:20.463Z,16.72
2022-10-17T22:21:48.169Z,16.66
2022-10-17T22:24:17.806Z,16.75
2022-10-17T22:26:46.013Z,16.72
2022-10-17T22:29:14.533Z,16.72
2022-10-17T22:31:42.470Z,16.68
2022-10-17T22:34:13.643Z,16.68
2022-10-17T22:36:41.794Z,16.61
2022-10-17T22:39:10.154Z,16.54
2022-10-17T22:41:38.235Z,16.51
2022-10-17T22:44:06.811Z,16.49
2022-10-17T22:46:34.893Z,16.51
2022-10-17T22:49:02.847Z,16.51
2022-10-17T22:51:32.973Z,16.45
2022-10-17T22:54:00.978Z,16.44
2022-10-17T22:56:29.038Z,16.44
2022-10-17T22:58:57.066Z,16.55
2022-10-17T23:01:26.855Z,16.58
2022-10-17T23:03:54.999Z,16.47
2022-10-17T23:06:23.443Z,16.44
2022-10-17T23:08:53.077Z,16.54
2022-10-17T23:11:21.877Z,16.54
2022-10-17T23:13:49.847Z,16.54
2022-10-17T23:16:18.126Z,16.55
2022-10-17T23:18:46.256Z,16.51
2022-10-17T23:21:14.213Z,16.58
2022-10-17T23:23:42.096Z,16.55
2022-10-17T23:26:13.428Z,16.58
2022-10-17T23:28:42.205Z,16.66
2022-10-17T23:31:15.433Z,16.59
2022-10-17T23:33:45.109Z,16.59
2022-10-17T23:36:13.924Z,16.58
2022-10-17T23:38:42.374Z,16.56
2022-10-17T23:41:11.988Z,16.58
2022-10-17T23:43:40.215Z,16.56
2022-10-17T23:46:08.598Z,16.58
2022-10-17T23:48:38.438Z,16.66
2022-10-17T23:51:07.481Z,16.65
2022-10-17T23:53:35.623Z,16.59
2022-10-17T23:56:03.807Z,16.51
2022-10-17T23:58:33.510Z,16.47
